Time;durP1;ratioP1;P1;durP2;ratioP2;P2;SDS_P1;SDS_P2;PMS_P1;PMS_P2;Temp;Humidity;BMP_temperature;BMP_pressure;BME280_temperature;BME280_humidity;BME280_pressure;Samples;Min_cycle;Max_cycle;Signal;HPM_P1;HPM_P2
2024/01/08 00:00:10;;;;;;;7.00;5.70;;;-0.40;99.90;;;;;;5122100;27;20440;-92
2024/01/08 00:02:36;;;;;;;6.65;5.30;;;-0.60;99.90;;;;;;5134349;27;20794;-90
2024/01/08 00:05:02;;;;;;;6.07;5.40;;;-0.60;99.90;;;;;;5135084;27;20388;-92
2024/01/08 00:07:28;;;;;;;6.93;5.38;;;-0.60;99.90;;;;;;5133658;27;20396;-90
2024/01/08 00:09:53;;;;;;;7.40;5.77;;;-0.60;99.90;;;;;;5134526;27;20405;-92
2024/01/08 00:12:19;;;;;;;8.03;5.80;;;-0.60;99.90;;;;;;5134116;27;20425;-91
2024/01/08 00:14:44;;;;;;;6.93;5.63;;;-0.60;99.90;;;;;;5134793;27;20483;-92
2024/01/08 00:17:10;;;;;;;6.85;5.68;;;-0.40;99.90;;;;;;5134776;27;20891;-92
2024/01/08 00:19:36;;;;;;;7.30;5.85;;;-0.50;99.90;;;;;;5134030;27;20404;-90
2024/01/08 00:22:01;;;;;;;7.97;5.50;;;-0.50;99.90;;;;;;5134350;27;20787;-92
2024/01/08 00:24:27;;;;;;;7.20;5.40;;;-0.50;99.90;;;;;;5132358;27;20413;-92
2024/01/08 00:26:53;;;;;;;7.87;5.77;;;-0.50;99.90;;;;;;5133101;27;20509;-93
2024/01/08 00:29:19;;;;;;;7.30;5.50;;;-0.40;99.90;;;;;;5132646;27;20887;-91
2024/01/08 00:31:45;;;;;;;7.20;5.57;;;-0.30;99.90;;;;;;5132837;27;20425;-92
2024/01/08 00:34:11;;;;;;;6.68;5.70;;;-0.40;99.90;;;;;;5132711;27;20404;-92
2024/01/08 00:36:37;;;;;;;7.38;5.70;;;-0.30;99.90;;;;;;5132548;27;20876;-92
2024/01/08 00:39:02;;;;;;;10.30;5.93;;;-0.40;99.90;;;;;;5133436;27;20393;-93
2024/01/08 00:41:28;;;;;;;9.93;5.47;;;-0.40;99.90;;;;;;5148707;27;20403;-91
2024/01/08 00:43:54;;;;;;;7.27;5.30;;;-0.30;99.90;;;;;;5133107;27;20397;-92
2024/01/08 00:46:20;;;;;;;8.00;5.03;;;-0.20;99.90;;;;;;5131766;27;20393;-91
2024/01/08 00:48:45;;;;;;;7.07;4.72;;;-0.20;99.90;;;;;;5132819;27;20399;-94
2024/01/08 00:51:11;;;;;;;7.65;4.78;;;-0.40;99.90;;;;;;5131933;27;20755;-90
2024/01/08 00:53:37;;;;;;;7.45;4.72;;;-0.30;99.90;;;;;;5132646;27;20461;-92
2024/01/08 00:56:02;;;;;;;8.43;5.17;;;-0.40;99.90;;;;;;5132893;27;20397;-93
2024/01/08 00:58:30;;;;;;;6.23;4.60;;;-0.40;99.90;;;;;;5132170;27;20394;-92
2024/01/08 01:00:55;;;;;;;8.32;4.55;;;-0.30;99.90;;;;;;5133201;27;20393;-91
2024/01/08 01:03:22;;;;;;;7.20;4.53;;;-0.30;99.90;;;;;;5132054;27;20416;-92
2024/01/08 01:05:47;;;;;;;7.38;5.00;;;-0.30;99.90;;;;;;5132681;27;20396;-92
2024/01/08 01:08:13;;;;;;;8.77;5.40;;;-0.40;99.90;;;;;;5132096;27;20409;-92
2024/01/08 01:10:39;;;;;;;7.32;4.68;;;-0.50;99.90;;;;;;5149465;27;20438;-93
2024/01/08 01:13:05;;;;;;;8.00;4.68;;;-0.50;99.90;;;;;;5131926;27;20478;-92
2024/01/08 01:15:30;;;;;;;8.45;5.10;;;-0.50;99.90;;;;;;5131684;27;21333;-93
2024/01/08 01:17:56;;;;;;;7.40;4.63;;;-0.60;99.90;;;;;;5132945;27;20452;-91
2024/01/08 01:20:22;;;;;;;7.60;4.80;;;-0.50;99.90;;;;;;5131692;27;20397;-92
2024/01/08 01:22:48;;;;;;;6.95;4.78;;;-0.80;99.90;;;;;;5065794;27;1856863;-93
2024/01/08 01:25:14;;;;;;;8.13;4.80;;;-0.80;99.90;;;;;;5132254;27;20896;-92
2024/01/08 01:27:39;;;;;;;7.85;4.85;;;-0.90;99.90;;;;;;5133178;27;20397;-93
2024/01/08 01:30:06;;;;;;;7.23;5.10;;;-0.80;99.90;;;;;;5132657;27;20393;-92
2024/01/08 01:32:32;;;;;;;8.25;4.65;;;-1.00;99.90;;;;;;5131628;27;20450;-92
2024/01/08 01:34:58;;;;;;;8.15;5.30;;;-1.10;99.90;;;;;;5132891;27;20397;-90
2024/01/08 01:37:23;;;;;;;7.70;4.80;;;-1.20;99.90;;;;;;5131838;27;20401;-94
2024/01/08 01:39:49;;;;;;;8.60;5.03;;;-1.20;99.90;;;;;;5133384;27;20717;-91
2024/01/08 01:42:16;;;;;;;7.55;4.90;;;-1.30;99.90;;;;;;5131452;27;20393;-94
2024/01/08 01:44:42;;;;;;;8.30;4.85;;;-1.20;99.90;;;;;;5150280;27;20426;-92
2024/01/08 01:47:08;;;;;;;7.80;4.73;;;-1.40;99.90;;;;;;5112830;27;20893;-92
2024/01/08 01:49:34;;;;;;;7.15;5.10;;;-1.40;99.90;;;;;;5111902;27;20391;-92
2024/01/08 01:52:01;;;;;;;8.15;5.20;;;-1.50;99.90;;;;;;5110442;27;20423;-92
2024/01/08 01:54:28;;;;;;;7.00;5.10;;;-1.50;99.90;;;;;;5111206;27;20402;-92
2024/01/08 01:56:59;;;;;;;9.05;5.10;;;-1.50;99.90;;;;;;5112464;27;20754;-91
2024/01/08 01:59:27;;;;;;;7.65;5.50;;;-1.50;99.90;;;;;;5127900;27;20394;-90
2024/01/08 02:01:56;;;;;;;7.60;5.05;;;-1.50;99.90;;;;;;5111914;27;20399;-90
2024/01/08 02:04:24;;;;;;;8.68;5.60;;;-1.50;99.90;;;;;;5122866;27;20401;-91
2024/01/08 02:06:51;;;;;;;7.28;5.38;;;-1.40;99.90;;;;;;5132617;27;20405;-93
2024/01/08 02:09:17;;;;;;;8.82;5.68;;;-1.40;99.90;;;;;;5131840;27;20403;-92
2024/01/08 02:11:43;;;;;;;8.30;5.80;;;-1.50;99.90;;;;;;5132148;27;20420;-92
2024/01/08 02:14:10;;;;;;;8.90;6.07;;;-1.40;99.90;;;;;;5113916;27;20916;-92
2024/01/08 02:16:36;;;;;;;10.80;6.13;;;-1.40;99.90;;;;;;5110775;27;20395;-92
2024/01/08 02:19:02;;;;;;;8.55;5.70;;;-1.30;99.90;;;;;;5111735;27;20502;-93
2024/01/08 02:21:28;;;;;;;7.95;5.38;;;-1.30;99.90;;;;;;5114550;27;20862;-92
2024/01/08 02:23:54;;;;;;;7.57;5.43;;;-1.20;99.90;;;;;;5131757;27;20448;-93
2024/01/08 02:26:21;;;;;;;7.13;5.55;;;-1.10;99.90;;;;;;5131484;27;20438;-91
2024/01/08 02:28:47;;;;;;;7.18;5.63;;;-1.20;99.90;;;;;;5131874;27;20389;-92
2024/01/08 02:31:12;;;;;;;8.93;5.93;;;-1.20;99.90;;;;;;5131821;27;21152;-91
2024/01/08 02:33:38;;;;;;;8.75;5.97;;;-1.20;99.90;;;;;;5131327;27;20404;-91
2024/01/08 02:36:04;;;;;;;8.90;6.30;;;-1.10;99.90;;;;;;5132510;27;20393;-92
2024/01/08 02:38:29;;;;;;;9.32;6.43;;;-1.10;99.90;;;;;;5131175;27;20401;-92
2024/01/08 02:40:57;;;;;;;9.93;6.95;;;-1.10;99.90;;;;;;5116746;27;20395;-92
2024/01/08 02:43:24;;;;;;;9.63;6.68;;;-1.10;99.90;;;;;;5110699;27;20535;-91
2024/01/08 02:45:49;;;;;;;9.32;6.32;;;-1.10;99.90;;;;;;5110875;27;20398;-92
2024/01/08 02:48:15;;;;;;;8.47;6.43;;;-1.10;99.90;;;;;;5111017;27;20405;-92
2024/01/08 02:50:41;;;;;;;8.52;6.25;;;-0.90;99.90;;;;;;5110022;27;20394;-91
2024/01/08 02:53:06;;;;;;;8.05;6.45;;;-1.00;99.90;;;;;;5126960;27;20478;-92
2024/01/08 02:55:32;;;;;;;9.93;6.45;;;-0.90;99.90;;;;;;5131092;27;20401;-92
2024/01/08 02:57:58;;;;;;;8.67;6.17;;;-1.00;99.90;;;;;;5132223;27;20413;-91
2024/01/08 03:00:23;;;;;;;8.73;6.53;;;-1.00;99.90;;;;;;5147929;27;20432;-92
2024/01/08 03:02:49;;;;;;;8.10;6.23;;;-1.00;99.90;;;;;;5131516;27;20502;-92
2024/01/08 03:05:15;;;;;;;9.60;6.60;;;-0.90;99.90;;;;;;5130569;27;20896;-91
2024/01/08 03:07:40;;;;;;;9.00;6.50;;;-0.90;99.90;;;;;;5131061;27;20446;-92
2024/01/08 03:10:06;;;;;;;8.80;6.87;;;-0.90;99.90;;;;;;5130941;27;20405;-93
2024/01/08 03:12:32;;;;;;;11.35;6.90;;;-0.90;99.90;;;;;;5124963;27;20690;-92
2024/01/08 03:14:57;;;;;;;10.30;7.13;;;-0.90;99.90;;;;;;5111377;28;20426;-91
2024/01/08 03:17:23;;;;;;;9.80;7.07;;;-0.80;99.90;;;;;;5109702;28;20405;-93
2024/01/08 03:19:49;;;;;;;8.23;6.78;;;-0.80;99.90;;;;;;5110353;27;20391;-92
2024/01/08 03:22:15;;;;;;;9.40;6.63;;;-0.80;99.90;;;;;;5110405;28;20403;-92
2024/01/08 03:24:40;;;;;;;10.13;7.07;;;-0.80;99.90;;;;;;5110736;28;20434;-92
2024/01/08 03:27:06;;;;;;;9.05;7.25;;;-0.80;99.90;;;;;;5110836;27;20438;-92
2024/01/08 03:29:31;;;;;;;10.93;7.50;;;-0.80;99.90;;;;;;5110200;28;20398;-93
2024/01/08 03:31:57;;;;;;;10.87;7.33;;;-0.80;99.90;;;;;;5110797;28;20514;-93
2024/01/08 03:34:23;;;;;;;8.82;7.47;;;-0.80;99.90;;;;;;5110404;27;20398;-92
2024/01/08 03:36:50;;;;;;;9.47;7.30;;;-0.80;99.90;;;;;;5124694;27;20393;-91
2024/01/08 03:39:17;;;;;;;9.90;7.32;;;-0.70;99.90;;;;;;5130187;27;20404;-92
2024/01/08 03:41:43;;;;;;;11.15;7.53;;;-0.70;99.90;;;;;;5130998;27;20396;-91
2024/01/08 03:44:10;;;;;;;9.57;7.47;;;-0.70;99.90;;;;;;5120987;27;20398;-93
2024/01/08 03:46:36;;;;;;;10.02;7.85;;;-0.70;99.90;;;;;;5130133;27;20399;-93
2024/01/08 03:49:03;;;;;;;9.47;7.50;;;-0.60;99.90;;;;;;5148428;27;20456;-93
2024/01/08 03:51:30;;;;;;;9.80;7.30;;;-0.60;99.90;;;;;;5129902;27;20489;-92
2024/01/08 03:53:56;;;;;;;9.18;7.55;;;-0.60;99.90;;;;;;5131217;27;20420;-91
2024/01/08 03:56:21;;;;;;;10.10;7.53;;;-0.60;99.90;;;;;;5130353;27;20413;-92
2024/01/08 03:58:47;;;;;;;11.00;7.85;;;-0.40;99.90;;;;;;5148120;27;20925;-92
2024/01/08 04:01:13;;;;;;;9.88;7.50;;;-0.60;99.90;;;;;;5130393;27;20952;-91
2024/01/08 04:03:39;;;;;;;10.13;7.63;;;-0.50;99.90;;;;;;5130316;27;20443;-92
2024/01/08 04:06:04;;;;;;;9.38;7.57;;;-0.50;99.90;;;;;;5130769;27;20393;-90
2024/01/08 04:08:30;;;;;;;9.18;7.18;;;-0.60;99.90;;;;;;5130041;27;20397;-91
2024/01/08 04:10:56;;;;;;;10.20;8.05;;;-0.50;99.90;;;;;;5130994;27;20789;-93
2024/01/08 04:13:21;;;;;;;10.07;7.60;;;-0.50;99.90;;;;;;5129812;27;20821;-91
2024/01/08 04:15:47;;;;;;;9.73;7.57;;;-0.50;99.90;;;;;;5132470;27;20492;-91
2024/01/08 04:18:13;;;;;;;9.88;7.45;;;-0.50;99.90;;;;;;5133902;27;20400;-92
2024/01/08 04:20:39;;;;;;;9.82;6.95;;;-0.50;99.90;;;;;;5122723;27;20431;-93
2024/01/08 04:23:05;;;;;;;9.15;6.85;;;-0.50;99.90;;;;;;5113114;27;20434;-94
2024/01/08 04:25:31;;;;;;;10.27;7.50;;;-0.30;99.90;;;;;;5113852;27;20850;-92
2024/01/08 04:27:56;;;;;;;10.93;7.30;;;-0.40;99.90;;;;;;5114124;27;20427;-90
2024/01/08 04:30:22;;;;;;;9.87;6.90;;;-0.40;99.90;;;;;;5112474;27;20928;-92
2024/01/08 04:32:48;;;;;;;9.23;7.07;;;-0.40;99.90;;;;;;5126430;27;20429;-91
2024/01/08 04:35:13;;;;;;;7.55;6.40;;;-0.40;99.90;;;;;;5133698;27;20416;-92
2024/01/08 04:37:40;;;;;;;10.35;7.10;;;-0.30;99.90;;;;;;5133839;27;20737;-93
2024/01/08 04:40:07;;;;;;;9.20;6.70;;;-0.40;99.90;;;;;;5133392;27;20404;-92
2024/01/08 04:42:33;;;;;;;9.35;6.80;;;-0.40;99.90;;;;;;5133678;27;20429;-92
2024/01/08 04:44:58;;;;;;;10.77;6.53;;;-0.40;99.90;;;;;;5134217;27;20559;-92
2024/01/08 04:47:24;;;;;;;10.13;6.47;;;-0.20;99.90;;;;;;5133206;27;20432;-92
2024/01/08 04:49:50;;;;;;;9.03;6.27;;;-0.30;99.90;;;;;;5134554;27;20412;-91
2024/01/08 04:52:16;;;;;;;9.20;6.32;;;-0.30;99.90;;;;;;5133076;27;20438;-92
2024/01/08 04:54:42;;;;;;;10.15;6.80;;;-0.30;99.90;;;;;;5133992;27;20405;-92
2024/01/08 04:57:11;;;;;;;8.00;5.75;;;-0.20;99.90;;;;;;5132801;27;20404;-90
2024/01/08 04:59:41;;;;;;;8.30;5.80;;;-0.30;99.90;;;;;;5133345;27;20399;-94
2024/01/08 05:02:08;;;;;;;7.82;5.20;;;-0.30;99.90;;;;;;5133596;27;20814;-93
2024/01/08 05:04:34;;;;;;;6.50;4.32;;;-0.50;99.90;;;;;;5132512;27;20448;-92
2024/01/08 05:06:59;;;;;;;6.82;4.13;;;-0.30;99.90;;;;;;5134387;27;20436;-91
2024/01/08 05:09:25;;;;;;;6.93;4.13;;;-0.40;99.90;;;;;;5149552;27;20883;-92
2024/01/08 05:11:51;;;;;;;6.43;3.73;;;-0.30;99.90;;;;;;5133187;27;20512;-93
2024/01/08 05:14:16;;;;;;;7.13;3.60;;;-0.40;99.90;;;;;;5132797;27;20445;-93
2024/01/08 05:16:42;;;;;;;7.03;3.67;;;-0.40;99.90;;;;;;5133075;27;20938;-92
2024/01/08 05:19:08;;;;;;;7.13;3.53;;;-0.30;99.90;;;;;;5132936;27;20457;-92
2024/01/08 05:21:34;;;;;;;7.80;3.75;;;-0.40;99.90;;;;;;5133229;27;21086;-93
2024/01/08 05:23:59;;;;;;;5.20;3.40;;;-0.50;99.90;;;;;;5133171;27;20924;-91
2024/01/08 05:26:25;;;;;;;6.03;3.40;;;-0.40;99.90;;;;;;5131531;27;20404;-93
2024/01/08 05:28:51;;;;;;;6.40;3.70;;;-0.50;99.90;;;;;;5150256;27;20385;-91
2024/01/08 05:31:17;;;;;;;7.28;3.63;;;-0.50;99.90;;;;;;5132381;27;20745;-90
2024/01/08 05:33:43;;;;;;;6.45;3.75;;;-0.30;99.90;;;;;;5132954;27;20472;-91
2024/01/08 05:36:09;;;;;;;5.93;3.90;;;-0.50;99.90;;;;;;5132207;27;20415;-92
2024/01/08 05:38:36;;;;;;;6.13;4.05;;;-0.50;99.90;;;;;;5132875;27;20433;-92
2024/01/08 05:41:01;;;;;;;6.10;3.47;;;-0.50;99.90;;;;;;5126415;27;20415;-92
2024/01/08 05:43:27;;;;;;;5.53;3.85;;;-0.70;99.90;;;;;;5128605;27;20738;-91
2024/01/08 05:45:53;;;;;;;7.00;4.00;;;-0.80;99.90;;;;;;5111827;27;20401;-92
2024/01/08 05:48:19;;;;;;;5.85;3.38;;;-0.80;99.90;;;;;;5110794;27;20406;-91
2024/01/08 05:50:46;;;;;;;7.20;4.00;;;-0.90;99.90;;;;;;5112054;27;20410;-92
2024/01/08 05:53:13;;;;;;;6.78;3.85;;;-1.10;99.90;;;;;;5128576;27;20425;-94
2024/01/08 05:55:38;;;;;;;6.57;3.80;;;-1.10;99.90;;;;;;5110706;27;20478;-92
2024/01/08 05:58:04;;;;;;;7.57;3.60;;;-0.70;99.90;;;;;;5127909;27;20470;-89
2024/01/08 06:00:30;;;;;;;7.60;4.17;;;-1.30;99.90;;;;;;5110525;27;20757;-92
2024/01/08 06:02:56;;;;;;;6.43;4.07;;;-1.30;99.90;;;;;;5108320;27;20494;-93
2024/01/08 06:05:21;;;;;;;6.07;4.10;;;-1.40;99.90;;;;;;5128045;27;20394;-90
2024/01/08 06:07:48;;;;;;;6.10;3.90;;;-1.50;99.90;;;;;;5112325;27;20445;-92
2024/01/08 06:10:14;;;;;;;5.57;3.90;;;-1.50;99.90;;;;;;5111101;27;20409;-92
2024/01/08 06:12:40;;;;;;;7.43;4.60;;;-1.40;99.90;;;;;;5111520;27;21227;-90
2024/01/08 06:15:06;;;;;;;6.80;4.67;;;-1.50;99.90;;;;;;5110831;27;20409;-90
2024/01/08 06:17:31;;;;;;;7.15;4.72;;;-1.60;99.90;;;;;;5110592;27;20786;-90
2024/01/08 06:19:57;;;;;;;7.60;4.60;;;-1.60;99.90;;;;;;5112031;27;20754;-92
2024/01/08 06:22:23;;;;;;;6.57;4.10;;;-1.50;99.90;;;;;;5110334;27;20972;-91
2024/01/08 06:24:49;;;;;;;7.28;4.60;;;-1.50;99.90;;;;;;5111808;27;20815;-93
2024/01/08 06:27:15;;;;;;;6.28;4.05;;;-1.60;99.90;;;;;;5110493;27;20409;-90
2024/01/08 06:29:40;;;;;;;7.00;4.75;;;-1.60;99.90;;;;;;5111924;27;21194;-90
2024/01/08 06:32:06;;;;;;;8.25;5.22;;;-1.60;99.90;;;;;;5110260;27;20505;-91
2024/01/08 06:34:32;;;;;;;7.10;4.60;;;-1.70;99.90;;;;;;5111446;27;20398;-91
2024/01/08 06:36:58;;;;;;;7.82;4.63;;;-1.60;99.90;;;;;;5128379;27;20509;-91
2024/01/08 06:39:24;;;;;;;6.70;4.53;;;-1.80;99.90;;;;;;5110418;27;20399;-92
2024/01/08 06:41:50;;;;;;;8.07;5.00;;;-1.80;99.90;;;;;;5111144;27;20413;-91
2024/01/08 06:44:15;;;;;;;7.60;4.70;;;-1.90;99.90;;;;;;5109372;27;20497;-91
2024/01/08 06:46:41;;;;;;;8.30;5.03;;;-1.90;99.90;;;;;;5110960;27;20395;-90
2024/01/08 06:49:08;;;;;;;7.33;4.83;;;-1.80;99.90;;;;;;5110528;27;20742;-91
2024/01/08 06:51:41;;;;;;;7.82;4.90;;;-1.80;99.90;;;;;;5123554;27;20940;-92
2024/01/08 06:54:07;;;;;;;6.85;4.97;;;-2.00;99.90;;;;;;5130875;27;20405;-91
2024/01/08 06:56:33;;;;;;;7.38;5.22;;;-2.00;99.90;;;;;;5131151;27;20397;-91
2024/01/08 06:59:03;;;;;;;7.35;5.07;;;-2.10;99.90;;;;;;5111959;27;20490;-91
2024/01/08 07:01:31;;;;;;;8.65;5.18;;;-2.10;99.90;;;;;;5126679;27;20422;-91
2024/01/08 07:03:57;;;;;;;8.48;4.93;;;-2.20;99.90;;;;;;5127169;27;20748;-92
2024/01/08 07:06:23;;;;;;;8.50;5.57;;;-2.20;99.90;;;;;;5120010;27;20403;-90
2024/01/08 07:08:49;;;;;;;8.50;5.63;;;-2.10;99.90;;;;;;5110627;27;20405;-92
2024/01/08 07:11:22;;;;;;;9.60;5.50;;;-2.20;99.90;;;;;;5110540;28;20391;-91
2024/01/08 07:13:49;;;;;;;10.75;5.22;;;-2.30;99.90;;;;;;5110223;27;20404;-91
2024/01/08 07:16:15;;;;;;;9.20;4.83;;;-2.20;99.90;;;;;;5110733;28;20406;-91
2024/01/08 07:18:41;;;;;;;7.78;5.03;;;-2.20;99.90;;;;;;5109861;28;20394;-91
2024/01/08 07:21:08;;;;;;;8.18;6.10;;;-2.20;99.90;;;;;;5128558;27;20398;-90
2024/01/08 07:23:35;;;;;;;9.77;5.97;;;-2.20;99.90;;;;;;5109490;28;20418;-91
2024/01/08 07:26:01;;;;;;;8.50;5.47;;;-2.20;99.90;;;;;;5110811;28;20403;-91
2024/01/08 07:28:28;;;;;;;7.30;4.77;;;-1.90;99.90;;;;;;5109646;28;20417;-91
2024/01/08 07:30:53;;;;;;;9.82;5.32;;;-2.10;99.90;;;;;;5110477;27;20394;-90
2024/01/08 07:33:19;;;;;;;9.97;5.03;;;-1.90;99.90;;;;;;5110540;28;20523;-90
2024/01/08 07:35:45;;;;;;;10.18;4.60;;;-1.80;99.90;;;;;;5110404;28;20916;-91
2024/01/08 07:38:10;;;;;;;8.90;4.90;;;-2.00;99.90;;;;;;5111138;28;20403;-92
2024/01/08 07:40:36;;;;;;;8.13;4.60;;;-1.80;99.90;;;;;;5108628;27;21174;-90
2024/01/08 07:43:02;;;;;;;9.27;4.43;;;-1.90;99.90;;;;;;5109691;28;20889;-90
2024/01/08 07:45:27;;;;;;;9.97;4.70;;;-1.80;99.90;;;;;;5109978;28;20394;-91
2024/01/08 07:47:54;;;;;;;9.30;4.80;;;-1.70;99.90;;;;;;5127405;28;20398;-91
2024/01/08 07:50:20;;;;;;;8.90;4.60;;;-1.70;99.90;;;;;;5110631;27;20402;-91
2024/01/08 07:52:46;;;;;;;7.95;4.63;;;-1.60;99.90;;;;;;5113793;27;20781;-91
2024/01/08 07:55:12;;;;;;;8.55;4.10;;;-1.50;99.90;;;;;;5146707;27;20421;-91
2024/01/08 07:57:37;;;;;;;9.23;4.60;;;-1.50;99.90;;;;;;5134027;27;20393;-92
2024/01/08 08:00:11;;;;;;;11.25;4.78;;;-1.50;99.90;;;;;;5134925;27;20409;-91
2024/01/08 08:02:37;;;;;;;7.68;4.20;;;-1.40;99.90;;;;;;5134353;27;20400;-90
2024/01/08 08:05:03;;;;;;;9.23;4.35;;;-1.30;99.90;;;;;;5134960;27;20400;-90
2024/01/08 08:07:29;;;;;;;8.85;4.57;;;-1.30;99.90;;;;;;5134236;27;20449;-89
2024/01/08 08:09:55;;;;;;;7.90;4.45;;;-1.20;99.90;;;;;;5134104;27;20484;-91
2024/01/08 08:12:20;;;;;;;8.65;4.40;;;-1.20;99.90;;;;;;5134459;27;20494;-92
2024/01/08 08:14:49;;;;;;;8.50;4.28;;;-1.10;99.90;;;;;;5131366;27;20417;-90
2024/01/08 08:17:16;;;;;;;8.95;4.65;;;-1.10;99.90;;;;;;5114476;27;20887;-91
2024/01/08 08:19:44;;;;;;;10.40;4.47;;;-1.00;99.90;;;;;;5130614;27;20401;-91
2024/01/08 08:22:11;;;;;;;8.82;4.30;;;-1.00;99.90;;;;;;5130587;27;20409;-89
2024/01/08 08:24:40;;;;;;;9.80;3.65;;;-0.80;99.90;;;;;;5113192;27;20399;-91
2024/01/08 08:27:09;;;;;;;6.38;3.70;;;-0.90;99.90;;;;;;5130703;27;20437;-92
2024/01/08 08:29:41;;;;;;;9.02;4.15;;;-0.70;99.90;;;;;;5130686;27;20406;-92
2024/01/08 08:32:07;;;;;;;6.78;3.53;;;-0.80;99.90;;;;;;5112593;27;20418;-90
2024/01/08 08:34:33;;;;;;;7.93;3.50;;;-0.80;99.90;;;;;;5114268;27;20390;-92
2024/01/08 08:36:59;;;;;;;7.47;3.45;;;-0.80;99.90;;;;;;5112682;27;20402;-92
2024/01/08 08:39:25;;;;;;;7.75;3.72;;;-0.60;99.90;;;;;;5113419;27;20448;-91
2024/01/08 08:41:50;;;;;;;7.25;3.30;;;-0.70;99.90;;;;;;5112700;27;20399;-91
2024/01/08 08:44:17;;;;;;;6.97;3.40;;;-0.60;99.90;;;;;;5113611;27;20407;-93
2024/01/08 08:46:44;;;;;;;6.82;3.08;;;-0.50;99.90;;;;;;5113183;27;20431;-91
2024/01/08 08:49:10;;;;;;;8.35;3.13;;;-0.50;99.90;;;;;;5113188;27;20801;-93
2024/01/08 08:51:36;;;;;;;6.65;3.08;;;-0.50;99.90;;;;;;5113638;27;20481;-91
2024/01/08 08:54:03;;;;;;;8.02;3.42;;;-0.50;99.90;;;;;;5112873;27;21175;-92
2024/01/08 08:56:34;;;;;;;8.40;3.00;;;-0.40;99.90;;;;;;5113131;27;20477;-91
2024/01/08 08:59:00;;;;;;;8.45;3.08;;;-0.40;99.90;;;;;;5112373;27;20418;-91
2024/01/08 09:01:27;;;;;;;6.07;2.97;;;-0.30;99.90;;;;;;5114328;27;20881;-92
2024/01/08 09:03:53;;;;;;;8.60;3.03;;;-0.30;99.90;;;;;;5112612;27;20391;-90
2024/01/08 09:06:27;;;;;;;7.60;2.80;;;-0.30;99.90;;;;;;5112913;27;20411;-91
2024/01/08 09:08:53;;;;;;;6.60;2.83;;;-0.20;99.90;;;;;;5113692;27;20407;-93
2024/01/08 09:11:20;;;;;;;6.82;2.70;;;-0.20;99.90;;;;;;5129025;27;20487;-92
2024/01/08 09:13:47;;;;;;;5.38;2.55;;;0.00;99.90;;;;;;5129358;27;20401;-93
2024/01/08 09:16:14;;;;;;;7.05;2.50;;;0.10;99.90;;;;;;5132867;27;20430;-94
2024/01/08 09:18:43;;;;;;;6.00;2.42;;;0.00;99.90;;;;;;5133590;27;20979;-91
2024/01/08 09:21:13;;;;;;;6.00;2.45;;;0.00;99.90;;;;;;5133184;27;20402;-93
2024/01/08 09:23:42;;;;;;;5.90;2.67;;;0.00;99.90;;;;;;5132038;27;20416;-92
2024/01/08 09:26:08;;;;;;;6.15;2.28;;;0.10;99.90;;;;;;5133370;27;20397;-93
2024/01/08 09:28:34;;;;;;;7.47;2.53;;;0.20;99.90;;;;;;5117986;27;20474;-91
2024/01/08 09:31:04;;;;;;;5.87;2.30;;;0.30;99.90;;;;;;5112359;27;20406;-90
2024/01/08 09:33:30;;;;;;;5.90;2.20;;;0.40;99.90;;;;;;5111440;27;20419;-90
2024/01/08 09:35:56;;;;;;;6.85;2.42;;;0.30;99.90;;;;;;5112116;27;20399;-92
2024/01/08 09:38:22;;;;;;;5.90;2.20;;;0.50;99.90;;;;;;5111854;27;20430;-93
2024/01/08 09:40:48;;;;;;;6.43;2.40;;;0.40;99.90;;;;;;5112323;27;20407;-92
2024/01/08 09:43:18;;;;;;;5.70;2.10;;;0.40;99.90;;;;;;5112753;27;20398;-90
2024/01/08 09:46:07;;;;;;;5.10;2.40;;;0.60;99.90;;;;;;5111715;27;20525;-90
2024/01/08 09:48:35;;;;;;;4.80;2.03;;;0.50;99.90;;;;;;5107473;27;20409;-93
2024/01/08 09:51:02;;;;;;;5.15;2.08;;;0.50;99.90;;;;;;5128774;27;20402;-91
2024/01/08 09:53:30;;;;;;;4.55;1.95;;;0.50;99.90;;;;;;5112113;27;20520;-93
2024/01/08 09:55:56;;;;;;;5.43;1.97;;;0.50;99.90;;;;;;5112148;27;20897;-90
2024/01/08 09:58:23;;;;;;;6.20;1.90;;;0.50;99.90;;;;;;5111579;27;20753;-93
2024/01/08 10:00:49;;;;;;;5.15;1.80;;;0.40;99.90;;;;;;5112443;27;20403;-89
2024/01/08 10:03:14;;;;;;;7.30;2.05;;;0.80;99.90;;;;;;5128409;27;20462;-92
2024/01/08 10:05:40;;;;;;;5.82;1.98;;;0.60;99.90;;;;;;5111839;27;20402;-92
2024/01/08 10:08:06;;;;;;;4.03;1.80;;;0.60;99.90;;;;;;5110993;27;20391;-91
2024/01/08 10:10:32;;;;;;;4.50;2.07;;;0.60;99.90;;;;;;5110991;27;20399;-91
2024/01/08 10:12:58;;;;;;;4.13;1.48;;;0.70;99.90;;;;;;5109419;27;20430;-90
2024/01/08 10:15:24;;;;;;;4.47;1.75;;;0.60;99.90;;;;;;5109980;27;20909;-93
2024/01/08 10:17:50;;;;;;;3.70;1.63;;;0.60;99.90;;;;;;5110674;27;20451;-91
2024/01/08 10:20:17;;;;;;;4.93;2.30;;;0.60;99.90;;;;;;5109402;27;20414;-89
2024/01/08 10:22:47;;;;;;;5.47;1.85;;;0.60;99.90;;;;;;5111053;27;20482;-91
2024/01/08 10:25:22;;;;;;;4.60;2.10;;;0.60;99.90;;;;;;5109811;27;20399;-89
2024/01/08 10:27:48;;;;;;;4.82;1.73;;;0.60;99.90;;;;;;5113572;27;20393;-92
2024/01/08 10:30:14;;;;;;;4.32;1.98;;;0.80;99.90;;;;;;5110859;27;20469;-91
2024/01/08 10:32:41;;;;;;;4.85;2.00;;;0.70;99.90;;;;;;5109838;27;20471;-89
2024/01/08 10:35:07;;;;;;;4.05;2.13;;;0.70;99.90;;;;;;5111207;27;20406;-89
2024/01/08 10:37:35;;;;;;;3.65;1.83;;;0.70;99.90;;;;;;5127093;27;20410;-90
2024/01/08 10:40:04;;;;;;;6.82;2.17;;;0.80;99.90;;;;;;5111224;27;20466;-93
2024/01/08 10:42:30;;;;;;;4.00;2.25;;;0.80;99.90;;;;;;5126361;27;20394;-87
2024/01/08 10:44:55;;;;;;;4.50;1.90;;;1.10;99.90;;;;;;5110399;27;20506;-90
2024/01/08 10:47:26;;;;;;;5.10;2.20;;;0.90;99.90;;;;;;5109644;27;20425;-89
2024/01/08 10:49:56;;;;;;;4.68;2.15;;;1.00;99.90;;;;;;5110149;27;20793;-93
2024/01/08 10:52:27;;;;;;;5.53;2.22;;;0.90;99.90;;;;;;5110554;27;20522;-92
2024/01/08 10:55:00;;;;;;;6.43;2.30;;;1.00;99.90;;;;;;5109930;27;20830;-90
2024/01/08 10:57:43;;;;;;;4.28;2.00;;;1.00;99.90;;;;;;5110912;27;20398;-92
2024/01/08 11:00:09;;;;;;;4.03;1.90;;;1.10;99.90;;;;;;5127351;27;21000;-91
2024/01/08 11:02:38;;;;;;;7.20;2.33;;;1.10;99.90;;;;;;5110772;27;20391;-94
2024/01/08 11:05:07;;;;;;;6.28;2.10;;;1.10;99.90;;;;;;5110841;27;20460;-87
2024/01/08 11:07:41;;;;;;;5.00;2.17;;;1.10;99.90;;;;;;5110180;27;20736;-93
2024/01/08 11:10:09;;;;;;;5.40;2.03;;;1.00;99.90;;;;;;5108444;27;20394;-91
2024/01/08 11:12:51;;;;;;;4.95;1.90;;;1.10;99.90;;;;;;5109606;28;20426;-90
2024/01/08 11:15:17;;;;;;;3.97;2.35;;;1.10;99.90;;;;;;5110681;28;20426;-91
2024/01/08 11:17:54;;;;;;;3.08;1.75;;;1.10;99.90;;;;;;5110274;28;20391;-90
2024/01/08 11:20:42;;;;;;;5.77;2.00;;;1.00;99.90;;;;;;5109567;28;20533;-90
2024/01/08 11:23:42;;;;;;;4.75;2.03;;;1.00;99.90;;;;;;5110503;28;20905;-92
2024/01/08 11:26:09;;;;;;;4.68;1.83;;;0.90;99.90;;;;;;5114426;27;20398;-91
2024/01/08 11:28:37;;;;;;;4.18;1.65;;;1.20;99.90;;;;;;5131619;27;20501;-93
2024/01/08 11:31:32;;;;;;;3.30;1.83;;;1.00;99.90;;;;;;5111920;27;20402;-87
2024/01/08 11:34:43;;;;;;;4.80;2.10;;;0.80;99.90;;;;;;5113306;27;20399;-91
2024/01/08 11:37:18;;;;;;;4.53;2.10;;;0.90;99.90;;;;;;5111097;28;20633;-90
2024/01/08 11:39:44;;;;;;;4.22;2.30;;;1.00;99.90;;;;;;5129209;27;20408;-91
2024/01/08 11:42:10;;;;;;;3.60;2.00;;;1.10;99.90;;;;;;5115995;27;20386;-93
2024/01/08 11:44:36;;;;;;;4.10;2.20;;;1.30;99.90;;;;;;5115027;27;20409;-90
2024/01/08 11:47:03;;;;;;;3.70;2.20;;;1.20;99.90;;;;;;5130585;27;20406;-89
2024/01/08 11:49:29;;;;;;;3.63;2.00;;;1.30;99.90;;;;;;5114589;27;20390;-90
2024/01/08 11:52:01;;;;;;;3.77;1.90;;;1.30;99.90;;;;;;5130808;27;20433;-92
2024/01/08 11:54:27;;;;;;;3.75;2.08;;;1.30;99.90;;;;;;5113205;27;20908;-92
2024/01/08 11:56:53;;;;;;;4.40;2.25;;;1.40;99.90;;;;;;5113812;27;20390;-88
2024/01/08 11:59:33;;;;;;;3.50;1.75;;;1.30;99.90;;;;;;5130150;27;20861;-91
2024/01/08 12:02:14;;;;;;;3.80;1.80;;;1.40;99.90;;;;;;5114290;27;20806;-91
2024/01/08 12:05:00;;;;;;;5.05;1.90;;;1.40;99.90;;;;;;5141659;27;20407;-95
2024/01/08 12:07:27;;;;;;;5.45;1.85;;;1.80;99.90;;;;;;5141667;27;20403;-88
2024/01/08 12:09:54;;;;;;;4.28;2.30;;;1.40;99.90;;;;;;5113451;27;20435;-92
2024/01/08 12:12:22;;;;;;;4.13;1.90;;;1.40;99.90;;;;;;5135190;27;20428;-90
2024/01/08 12:14:49;;;;;;;4.68;1.90;;;1.40;99.90;;;;;;5129539;27;20402;-91
2024/01/08 12:17:16;;;;;;;3.88;1.75;;;1.40;99.90;;;;;;5112846;27;20399;-91
2024/01/08 12:19:52;;;;;;;4.47;1.95;;;1.40;99.90;;;;;;5114010;27;20406;-92
2024/01/08 12:22:18;;;;;;;3.92;2.10;;;1.40;99.90;;;;;;5112980;27;20411;-88
2024/01/08 12:24:47;;;;;;;5.05;2.13;;;1.30;99.90;;;;;;5113446;27;20414;-93
2024/01/08 12:27:18;;;;;;;4.70;2.10;;;1.30;99.90;;;;;;5131104;27;20399;-89
2024/01/08 12:29:45;;;;;;;4.13;2.05;;;1.30;99.90;;;;;;5129871;27;20410;-89
2024/01/08 12:32:16;;;;;;;4.00;2.03;;;1.50;99.90;;;;;;5113085;27;20418;-89
2024/01/08 12:34:42;;;;;;;5.47;2.33;;;1.90;99.90;;;;;;5113108;27;20399;-91
2024/01/08 12:37:09;;;;;;;4.10;2.15;;;2.30;99.90;;;;;;5111779;27;20407;-89
2024/01/08 12:39:35;;;;;;;4.22;2.10;;;2.60;98.80;;;;;;5112567;27;20478;-92
2024/01/08 12:42:09;;;;;;;4.50;2.20;;;2.60;98.10;;;;;;5129576;27;20799;-92
2024/01/08 12:44:36;;;;;;;3.92;1.90;;;2.90;97.90;;;;;;5113265;27;20398;-90
2024/01/08 12:47:04;;;;;;;3.38;1.85;;;3.10;95.40;;;;;;5112899;27;20800;-92